Titonka, IA

7:04 AM CDT on July 10, 2014 (GMT -0500)
Mason City Municipal (KMCW) Elev 1214 ft | 43.16 °N, 93.33 °W | Change Station

Current weather conditions updated 11 minutes ago

Partly Cloudy
Partly Cloudy
64 °F
Feels Like 64 °F
N
7
Wind Variable Wind from South

Today is forecast to be nearly the same temperature as yesterday.

Today
High -- | Low -- °F
--% Chance of Precip.
Yesterday
High -- | Low -- °F
Precip. -- in
5:45 AM 8:56 PM
Waxing Gibbous, 94% visible
Pressure 30.06 in
Visibility 7.0 miles
Clouds Few 6000 ft
Few 9000 ft
Dew Point 60 °F
Humidity 87%
Rainfall 0.00 in
Snow Depth Not available.
UV 1 out of 12
Pollen 3.40 out of 12
Air Quality Not available.
Flu Activity Sporadic
METAR KMCW 101153Z AUTO 19006KT 7SM FEW060 FEW090 18/16 A3009 RMK AO2 SLP177 T01780156 10178 20133 53012 TSNO

More Conditions Fewer Conditions

Pressure 30.06 in
Visibility 7.0 miles
Clouds Few 6000 ft
Few 9000 ft
Dew Point 60 °F
Humidity 87%
Rainfall 0.00 in
Snow Depth Not available.
UV 1 out of 12
Pollen 3.40 out of 12
Air Quality Not available.
Flu Activity Sporadic
METAR KMCW 101153Z AUTO 19006KT 7SM FEW060 FEW090 18/16 A3009 RMK AO2 SLP177 T01780156 10178 20133 53012 TSNO

More Conditions Fewer Conditions

10-Day Weather Forecast

Almanac

Astronomy

Jul. 10, 2014 Rise Set
Actual Time 5:45 AM CDT 8:56 PM CDT
Civil Twilight 5:11 AM CDT 9:31 PM CDT
Nautical Twilight 4:26 AM CDT 10:16 PM CDT
Astronomical Twilight 3:31 AM CDT 11:10 PM CDT
Moon 7:08 PM CDT 3:59 AM CDT
Length of Visible Light 16h 20m
Length of Day
15h 11m
Tomorrow will be 1m 17s shorter.
Waxing Gibbous, 94% of the Moon is Illuminated
Today
Waxing Gibbous
Jul 12
Full
Jul 18
Last Quarter
Jul 26
New
Aug 3
First Quarter

Today's Extremes

State Highs State Lows

Community

WunderPhotos

Upload Photos

1,732,109 photos uploaded!

Nearby

Snow Depth

Station Depth Elevation
No new snow has been reported.

Earthquake Activity

City Distance Mag. Time & Date
No recent earthquake activity has been reported nearby.
Minimum magnitude displayed is 2.5.

Coastal Water Temperatures

Place Temperature
No Stations Reporting

Nearby Weather Stations

Station Location Temp. Dew Point Humidity Wind Precip. Elev Updated Type
Thompson, IA 65.8 °F 65 °F 97% West  at  3.8 mph 0.00 in / hr 1210 ft 7:04 AM CDT Rapid Fire
273 1st ST SW, Britt, IA 63.6 °F 61 °F 91% WSW  at  0.0 mph 0.00 in / hr 1214 ft 6:56 AM CDT Normal
Erin Township Trading Post, Britt, IA 63.0 °F 61 °F 93% SSW  at  2.0 mph 0.00 in / hr 1178 ft 6:51 AM CDT Normal
Farm Acreage, Bode, IA 62.5 °F 61 °F 95% SSE  at  0.0 mph 0.00 in / hr 1130 ft 7:01 AM CDT Normal
Garner, Garner, IA 62.6 °F 63 °F 100% South  at  6.0 mph 0.00 in / hr 1201 ft 6:58 AM CDT Normal

Show More Stations Show Fewer Stations